createdAt,value
2022-09-18T00:04:53.820Z,51.2
2022-09-18T00:09:56.695Z,51.3
2022-09-18T00:14:55.917Z,51.7
2022-09-18T00:19:58.629Z,52.1
2022-09-18T00:24:58.294Z,52.1
2022-09-18T00:29:58.109Z,52.2
2022-09-18T00:34:57.878Z,51.9
2022-09-18T00:40:00.553Z,51.6
2022-09-18T00:45:02.766Z,51.2
2022-09-18T00:50:02.180Z,50.5
2022-09-18T00:55:04.755Z,50
2022-09-18T01:00:06.595Z,49.7
2022-09-18T01:05:08.695Z,48.9
2022-09-18T01:10:07.859Z,48.5
2022-09-18T01:15:07.857Z,48.1
2022-09-18T01:20:07.518Z,47.6
2022-09-18T01:25:07.285Z,47.2
2022-09-18T01:30:06.983Z,47.1
2022-09-18T01:35:14.132Z,46.6
2022-09-18T01:40:09.759Z,46.4
2022-09-18T01:45:09.049Z,45.9
2022-09-18T01:50:11.773Z,45.4
2022-09-18T01:55:10.823Z,45.2
2022-09-18T02:00:10.842Z,45
2022-09-18T02:05:13.415Z,44.9
2022-09-18T02:10:12.677Z,44.5
2022-09-18T02:15:12.575Z,44.4
2022-09-18T02:20:12.876Z,44.3
2022-09-18T02:25:12.609Z,44
2022-09-18T02:30:15.316Z,43.9
2022-09-18T02:35:17.495Z,43.7
2022-09-18T02:40:19.594Z,43.4
2022-09-18T02:45:18.487Z,43.1
2022-09-18T02:50:18.344Z,43.2
2022-09-18T02:55:19.254Z,43
2022-09-18T03:00:18.890Z,42.9
2022-09-18T03:05:18.951Z,42.6
2022-09-18T03:10:18.993Z,42.4
2022-09-18T03:15:21.817Z,42.1
2022-09-18T03:20:21.150Z,42.1
2022-09-18T03:25:23.937Z,41.8
2022-09-18T03:30:23.417Z,41.7
2022-09-18T03:35:23.388Z,41.6
2022-09-18T03:40:23.357Z,41.3
2022-09-18T03:45:23.315Z,41.3
2022-09-18T03:50:23.380Z,41.1
2022-09-18T03:55:26.126Z,41
2022-09-18T04:00:25.374Z,41
2022-09-18T04:05:25.437Z,40.6
2022-09-18T04:10:27.932Z,40.6
2022-09-18T04:15:27.448Z,40.4
2022-09-18T04:20:25.953Z,40.3
2022-09-18T04:25:25.820Z,40.4
2022-09-18T04:30:28.351Z,40.2
2022-09-18T04:35:27.817Z,40
2022-09-18T04:40:30.379Z,39.9
2022-09-18T04:45:32.291Z,39.9
2022-09-18T04:50:31.743Z,39.9
2022-09-18T04:55:34.158Z,39.8
2022-09-18T05:00:33.510Z,39.8
2022-09-18T05:05:36.198Z,39.7
2022-09-18T05:10:38.279Z,39.8
2022-09-18T05:15:40.077Z,39.8
2022-09-18T05:20:39.706Z,39.8
2022-09-18T05:25:42.178Z,39.7
2022-09-18T05:30:41.263Z,39.5
2022-09-18T05:35:47.093Z,39.4
2022-09-18T05:40:48.869Z,39.4
2022-09-18T05:45:48.187Z,39.3
2022-09-18T05:50:47.816Z,39.3
2022-09-18T05:55:47.941Z,39.2
2022-09-18T06:00:50.473Z,39.2
2022-09-18T06:05:50.037Z,38.9
2022-09-18T06:10:50.046Z,38.9
2022-09-18T06:15:49.912Z,39
2022-09-18T06:20:48.128Z,39.7
2022-09-18T06:25:48.066Z,40.1
2022-09-18T06:30:48.147Z,40
2022-09-18T06:35:46.950Z,40.3
2022-09-18T06:40:47.169Z,40.1
2022-09-18T06:45:50.018Z,40.3
2022-09-18T06:50:52.142Z,40.3
2022-09-18T06:55:51.419Z,40.3
2022-09-18T07:00:51.122Z,40.2
2022-09-18T07:05:51.107Z,40.1
2022-09-18T07:10:51.096Z,40.2
2022-09-18T07:15:50.857Z,40.3
2022-09-18T07:20:50.604Z,39.4
2022-09-18T07:25:50.561Z,38.9
2022-09-18T07:30:50.181Z,38.6
2022-09-18T07:35:52.743Z,38.5
2022-09-18T07:40:52.112Z,38.3
2022-09-18T07:45:51.894Z,38.5
2022-09-18T07:50:54.241Z,39.3
2022-09-18T07:55:53.578Z,39.3
2022-09-18T08:00:56.374Z,39.3
2022-09-18T08:05:55.836Z,39.2
2022-09-18T08:10:55.831Z,39.1
2022-09-18T08:15:58.599Z,38.9
2022-09-18T08:20:57.992Z,38.8
2022-09-18T08:25:58.065Z,38.7
2022-09-18T08:30:57.949Z,38.6
2022-09-18T08:36:00.770Z,38.7
2022-09-18T08:40:59.930Z,38.7
2022-09-18T08:45:59.589Z,38.7
2022-09-18T08:51:02.052Z,38.7
2022-09-18T08:56:01.612Z,38.9
2022-09-18T09:01:01.562Z,38.8
2022-09-18T09:06:01.432Z,38.7
2022-09-18T09:11:01.511Z,38.7
2022-09-18T09:16:04.328Z,38.8
2022-09-18T09:21:04.721Z,38.7
2022-09-18T09:26:03.831Z,38.5
2022-09-18T09:31:06.705Z,37.9
2022-09-18T09:36:06.027Z,37.8
2022-09-18T09:41:05.799Z,37.9
2022-09-18T09:46:05.754Z,38
2022-09-18T09:51:05.449Z,38.1
2022-09-18T09:56:05.331Z,38.2
2022-09-18T10:01:05.370Z,37.9
2022-09-18T10:06:08.221Z,37.9
2022-09-18T10:11:10.362Z,37.7
2022-09-18T10:16:09.855Z,37.9
2022-09-18T10:21:12.581Z,37.9
2022-09-18T10:26:14.667Z,37.9
2022-09-18T10:31:14.212Z,37.9
2022-09-18T10:36:17.042Z,38
2022-09-18T10:41:16.461Z,38
2022-09-18T10:46:16.163Z,38.1
2022-09-18T10:51:18.909Z,38.1
2022-09-18T10:56:18.183Z,37.9
2022-09-18T11:01:18.196Z,38.1
2022-09-18T11:06:21.116Z,38
2022-09-18T11:11:20.743Z,37.9
2022-09-18T11:16:23.307Z,37.7
2022-09-18T11:21:22.532Z,37.4
2022-09-18T11:26:22.829Z,37
2022-09-18T11:31:23.014Z,36.9
2022-09-18T11:36:22.863Z,36.7
2022-09-18T11:41:22.723Z,36.5
2022-09-18T11:46:22.744Z,36.5
2022-09-18T11:51:25.610Z,36.3
2022-09-18T11:56:27.718Z,36.2
2022-09-18T12:01:29.802Z,36.5
2022-09-18T12:06:29.188Z,37
2022-09-18T12:11:27.435Z,37.1
2022-09-18T12:16:30.050Z,37.1
2022-09-18T12:21:29.461Z,37
2022-09-18T12:26:29.429Z,37.1
2022-09-18T12:31:31.989Z,37
2022-09-18T12:36:33.856Z,36.9
2022-09-18T12:41:34.042Z,36.9
2022-09-18T12:46:33.896Z,37
2022-09-18T12:51:33.750Z,36.9
2022-09-18T12:56:33.548Z,36.9
2022-09-18T13:01:33.335Z,36.8
2022-09-18T13:06:33.115Z,36.8
2022-09-18T13:11:36.019Z,36.8
2022-09-18T13:16:39.231Z,36.6
2022-09-18T13:21:38.426Z,36.7
2022-09-18T13:26:38.369Z,36.6
2022-09-18T13:31:41.376Z,36.3
2022-09-18T13:36:40.482Z,36.2
2022-09-18T13:41:40.386Z,36.2
2022-09-18T13:46:42.950Z,36.2
2022-09-18T13:51:42.647Z,36.2
2022-09-18T13:56:42.562Z,36.1
2022-09-18T14:01:42.291Z,36.2
2022-09-18T14:06:42.189Z,36.6
2022-09-18T14:11:44.909Z,35.8
2022-09-18T14:16:44.443Z,36
2022-09-18T14:21:44.059Z,35.8
2022-09-18T14:26:46.955Z,35.8
2022-09-18T14:31:49.117Z,35.4
2022-09-18T14:36:48.630Z,35.2
2022-09-18T14:41:51.329Z,35.4
2022-09-18T14:46:51.687Z,35
2022-09-18T14:52:03.426Z,34.9
2022-09-18T14:56:53.458Z,34.7
2022-09-18T15:01:55.659Z,34.5
2022-09-18T15:06:54.842Z,34.7
2022-09-18T15:12:02.486Z,34.7
2022-09-18T15:17:01.192Z,34.4
2022-09-18T15:22:00.657Z,34.3
2022-09-18T15:27:00.441Z,34.2
2022-09-18T15:32:00.302Z,34.2
2022-09-18T15:37:03.149Z,34
2022-09-18T15:42:02.445Z,34
2022-09-18T15:47:05.125Z,33.9
2022-09-18T15:52:04.545Z,33.9
2022-09-18T15:57:04.590Z,33.7
2022-09-18T16:02:08.656Z,33.8
2022-09-18T16:07:10.486Z,33.7
2022-09-18T16:12:12.729Z,33.7
2022-09-18T16:17:12.048Z,33.6
2022-09-18T16:22:11.839Z,33.7
2022-09-18T16:27:14.382Z,33.7
2022-09-18T16:32:13.893Z,33.8
2022-09-18T16:37:13.650Z,33.8
2022-09-18T16:42:10.970Z,33.7
2022-09-18T16:47:10.728Z,33.6
2022-09-18T16:52:13.551Z,33.6
2022-09-18T16:57:13.061Z,33.8
2022-09-18T17:02:15.295Z,33.9
2022-09-18T17:07:14.549Z,33.9
2022-09-18T17:12:14.275Z,33.8
2022-09-18T17:17:14.072Z,33.9
2022-09-18T17:22:13.582Z,33.9
2022-09-18T17:27:13.081Z,33.9
2022-09-18T17:32:13.155Z,33.9
2022-09-18T17:37:13.093Z,33.7
2022-09-18T17:42:15.510Z,33.5
2022-09-18T17:47:17.838Z,33.5
2022-09-18T17:52:19.982Z,33.3
2022-09-18T17:57:19.560Z,33.3
2022-09-18T18:02:19.463Z,33.1
2022-09-18T18:07:19.299Z,33.1
2022-09-18T18:12:18.972Z,32.9
2022-09-18T18:17:18.923Z,32.9
2022-09-18T18:22:18.658Z,32.8
2022-09-18T18:27:21.515Z,32.7
2022-09-18T18:32:20.911Z,32.9
2022-09-18T18:37:20.790Z,32.8
2022-09-18T18:42:20.787Z,32.9
2022-09-18T18:47:20.506Z,32.9
2022-09-18T18:52:20.328Z,32.9
2022-09-18T18:57:22.209Z,33
2022-09-18T19:02:21.400Z,33.1
2022-09-18T19:07:20.885Z,33.1
2022-09-18T19:12:23.240Z,33.3
2022-09-18T19:17:25.423Z,33.3
2022-09-18T19:22:27.455Z,33.4
2022-09-18T19:27:29.438Z,33.9
2022-09-18T19:32:28.638Z,34.2
2022-09-18T19:37:28.467Z,34.2
2022-09-18T19:42:28.603Z,34.3
2022-09-18T19:47:28.212Z,34.4
2022-09-18T19:52:31.082Z,34.3
2022-09-18T19:57:30.529Z,34.2
2022-09-18T20:02:30.142Z,33.8
2022-09-18T20:07:32.678Z,33.6
2022-09-18T20:12:35.403Z,33.4
2022-09-18T20:17:31.461Z,33.3
2022-09-18T20:22:31.559Z,33.3
2022-09-18T20:27:31.426Z,33.4
2022-09-18T20:32:31.422Z,33.7
2022-09-18T20:37:31.147Z,33.5
2022-09-18T20:42:31.922Z,33.6
2022-09-18T20:47:34.306Z,33.6
2022-09-18T20:52:33.432Z,33.9
2022-09-18T20:57:33.381Z,34
2022-09-18T21:02:33.065Z,33.9
2022-09-18T21:07:32.968Z,33.8
2022-09-18T21:12:32.894Z,33.8
2022-09-18T21:17:32.898Z,33.9
2022-09-18T21:22:32.719Z,34
2022-09-18T21:27:35.451Z,33.9
2022-09-18T21:32:34.942Z,33.6
2022-09-18T21:37:37.720Z,33.7
2022-09-18T21:42:39.629Z,33.6
2022-09-18T21:47:42.109Z,33.7
2022-09-18T21:52:41.277Z,33.8
2022-09-18T21:57:41.299Z,33.7
2022-09-18T22:02:43.718Z,34
2022-09-18T22:07:42.914Z,33.8
2022-09-18T22:12:42.689Z,33.7
2022-09-18T22:17:41.993Z,33.6
2022-09-18T22:22:41.896Z,33.7
2022-09-18T22:27:41.907Z,33.8
2022-09-18T22:32:41.570Z,33.9
2022-09-18T22:37:44.337Z,34
2022-09-18T22:42:43.933Z,34
2022-09-18T22:47:43.674Z,34.2
2022-09-18T22:52:46.456Z,34.1
2022-09-18T22:57:45.822Z,34.1
2022-09-18T23:02:45.864Z,34
2022-09-18T23:07:45.861Z,34
2022-09-18T23:12:45.633Z,33.9
2022-09-18T23:17:49.437Z,33.8
2022-09-18T23:22:48.840Z,33.7
2022-09-18T23:27:48.742Z,33.6
2022-09-18T23:32:48.509Z,33.6
2022-09-18T23:37:48.287Z,33.6
2022-09-18T23:42:48.068Z,33.6
2022-09-18T23:47:48.128Z,33.6
2022-09-18T23:52:48.294Z,33.7
2022-09-18T23:57:51.078Z,33.7
